Startpagina
METAR-TAF:

METAR-TAF

Vliegvelden :

Wittmund, Duitsland

breedte: 53-33N, lengte: 007-40E, hoogte: 8 m

Actueel weer

Dit bericht is 33 minuten geleden gemaakt, om 06:20 UTC
Wind 7 kt uit het noordnoordwesten
Temperatuur 17°C
Vochtigheid 88%
Druk 1007 hPa
Zicht 10 km of meer
Weinig wolken op 1300 ft
Verspreide wolken op 3000 ft
Gebroken wolken op 16000 ft

METAR: ETNT 250620Z 34007KT 9999 FEW013 SCT030 BKN160 17/15 Q1007 BLU

Tijdstip: 08:53 (06:53 UTC)


TAF: ontbreekt

Waarnemingen en weersverwachtingen van meer dan 4000 vliegvelden (METAR en TAF).

De beschikbare stations zijn de gele en rode punten op de kaart.

Ga met uw muis naar het station om de naam te zien.

Klik dan om waarnemingen en weersverwachtingen te zien.

kaart wijzigen: klik op de groene knoppen met een zwart kruis om in te zoomen, op de groene knop met een streepje om uit te zoomen of op de groene pijlen voor aangrenzende kaarten.


METAR-TAF: